createdAt,value
2018-07-19T00:00:12.807Z,101559.54
2018-07-19T00:02:42.278Z,101555.86
2018-07-19T00:05:11.800Z,101560.49
2018-07-19T00:07:41.188Z,101565.42
2018-07-19T00:10:10.569Z,101562.95
2018-07-19T00:12:40.488Z,101572.05
2018-07-19T00:15:10.294Z,101575.11
2018-07-19T00:17:40.232Z,101575.59
2018-07-19T00:20:10.774Z,101578.17
2018-07-19T00:22:40.416Z,101571.91
2018-07-19T00:25:09.984Z,101574.25
2018-07-19T00:27:40.424Z,101564.22
2018-07-19T00:30:10.325Z,101565.20
2018-07-19T00:32:40.249Z,101569.23
2018-07-19T00:35:10.025Z,101569.13
2018-07-19T00:37:40.569Z,101569.48
2018-07-19T00:40:10.466Z,101564.83
2018-07-19T00:42:40.288Z,101568.25
2018-07-19T00:45:10.041Z,101561.66
2018-07-19T00:47:39.877Z,101560.41
2018-07-19T00:50:09.948Z,101565.56
2018-07-19T00:52:39.602Z,101562.39
2018-07-19T00:55:09.371Z,101563.13
2018-07-19T00:57:39.467Z,101565.45
2018-07-19T01:00:09.441Z,101564.70
2018-07-19T01:02:39.025Z,101564.36
2018-07-19T01:05:10.373Z,101553.70
2018-07-19T01:07:40.214Z,101556.75
2018-07-19T01:10:09.938Z,101564.58
2018-07-19T01:12:40.085Z,101560.03
2018-07-19T01:15:09.857Z,101562.27
2018-07-19T01:17:39.485Z,101565.81
2018-07-19T01:20:11.100Z,101557.72
2018-07-19T01:22:41.130Z,101559.80
2018-07-19T01:25:10.916Z,101562.11
2018-07-19T01:27:41.786Z,101561.31
2018-07-19T01:30:11.377Z,101558.50
2018-07-19T01:32:40.995Z,101564.71
2018-07-19T01:35:10.797Z,101562.27
2018-07-19T01:37:40.421Z,101556.98
2018-07-19T01:40:10.107Z,101557.59
2018-07-19T01:42:41.967Z,101552.82
2018-07-19T01:45:12.308Z,101555.02
2018-07-19T01:47:42.543Z,101556.09
2018-07-19T01:50:12.533Z,101553.31
2018-07-19T01:52:42.880Z,101553.43
2018-07-19T01:55:12.618Z,101548.66
2018-07-19T01:57:41.983Z,101556.09
2018-07-19T02:00:12.714Z,101558.66
2018-07-19T02:02:42.576Z,101560.00
2018-07-19T02:05:12.118Z,101561.22
2018-07-19T02:07:41.576Z,101553.60
2018-07-19T02:10:11.540Z,101557.11
2018-07-19T02:12:41.556Z,101558.53
2018-07-19T02:15:11.164Z,101560.59
2018-07-19T02:17:40.669Z,101560.80
2018-07-19T02:20:10.380Z,101551.76
2018-07-19T02:22:39.980Z,101558.03
2018-07-19T02:25:09.741Z,101555.72
2018-07-19T02:27:39.518Z,101553.16
2018-07-19T02:30:09.868Z,101556.57
2018-07-19T02:32:39.805Z,101553.27
2018-07-19T02:35:10.518Z,101560.11
2018-07-19T02:37:40.303Z,101557.43
2018-07-19T02:40:10.114Z,101554.61
2018-07-19T02:42:39.749Z,101557.11
2018-07-19T02:45:09.384Z,101548.80
2018-07-19T02:47:39.160Z,101555.16
2018-07-19T02:50:08.976Z,101554.42
2018-07-19T02:52:38.965Z,101559.55
2018-07-19T02:55:08.580Z,101559.43
2018-07-19T02:57:38.209Z,101557.80
2018-07-19T03:00:07.711Z,101560.65
2018-07-19T03:02:37.340Z,101558.64
2018-07-19T03:05:07.363Z,101562.99
2018-07-19T03:07:38.436Z,101560.20
2018-07-19T03:10:08.364Z,101550.41
2018-07-19T03:12:38.014Z,101561.82
2018-07-19T03:15:08.703Z,101557.75
2018-07-19T03:17:38.311Z,101557.98
2018-07-19T03:20:07.958Z,101555.13
2018-07-19T03:22:38.174Z,101557.69
2018-07-19T03:25:08.272Z,101553.89
2018-07-19T03:27:37.930Z,101558.48
2018-07-19T03:30:07.924Z,101559.41
2018-07-19T03:32:37.788Z,101555.23
2018-07-19T03:35:07.543Z,101558.23
2018-07-19T03:37:37.513Z,101561.03
2018-07-19T03:40:07.337Z,101567.41
2018-07-19T03:42:37.003Z,101564.71
2018-07-19T03:45:06.766Z,101556.91
2018-07-19T03:47:36.579Z,101558.11
2018-07-19T03:50:06.387Z,101557.67
2018-07-19T03:52:36.456Z,101559.27
2018-07-19T03:55:06.407Z,101557.20
2018-07-19T03:57:36.499Z,101553.28
2018-07-19T04:00:07.084Z,101555.73
2018-07-19T04:02:38.246Z,101559.64
2018-07-19T04:05:08.366Z,101559.77
2018-07-19T04:07:38.570Z,101561.90
2018-07-19T04:10:08.937Z,101567.20
2018-07-19T04:12:40.537Z,101565.86
2018-07-19T04:15:10.554Z,101566.64
2018-07-19T04:17:45.446Z,101563.95
2018-07-19T04:20:16.172Z,101564.98
2018-07-19T04:22:45.759Z,101567.99
2018-07-19T04:25:15.248Z,101572.27
2018-07-19T04:27:44.754Z,101567.05
2018-07-19T04:30:15.488Z,101571.01
2018-07-19T04:32:50.871Z,101573.98
2018-07-19T04:35:20.734Z,101578.91
2018-07-19T04:37:50.450Z,101577.80
2018-07-19T04:40:19.824Z,101576.22
2018-07-19T04:42:49.846Z,101582.33
2018-07-19T04:45:19.208Z,101581.66
2018-07-19T04:47:48.543Z,101577.16
2018-07-19T04:50:18.021Z,101575.80
2018-07-19T04:52:47.250Z,101579.23
2018-07-19T04:55:16.594Z,101577.66
2018-07-19T04:57:45.908Z,101581.60
2018-07-19T05:00:16.475Z,101586.14
2018-07-19T05:02:46.134Z,101587.11
2018-07-19T05:05:15.606Z,101587.62
2018-07-19T05:07:45.206Z,101587.84
2018-07-19T05:10:15.214Z,101591.41
2018-07-19T05:12:44.799Z,101584.80
2018-07-19T05:15:14.386Z,101589.56
2018-07-19T05:17:44.329Z,101584.66
2018-07-19T05:20:13.902Z,101586.01
2018-07-19T05:22:43.432Z,101593.37
2018-07-19T05:25:13.412Z,101588.95
2018-07-19T05:27:43.337Z,101603.28
2018-07-19T05:30:13.095Z,101595.70
2018-07-19T05:32:44.221Z,101595.19
2018-07-19T05:35:14.456Z,101594.56
2018-07-19T05:37:44.269Z,101602.50
2018-07-19T05:40:13.856Z,101601.07
2018-07-19T05:42:44.476Z,101608.26
2018-07-19T05:45:14.086Z,101605.88
2018-07-19T05:47:46.763Z,101606.00
2018-07-19T05:50:16.563Z,101608.91
2018-07-19T05:52:46.744Z,101610.05
2018-07-19T05:55:16.545Z,101596.49
2018-07-19T05:57:46.432Z,101598.77
2018-07-19T06:00:17.035Z,101597.28
2018-07-19T06:02:46.909Z,101602.91
2018-07-19T06:05:18.351Z,101599.97
2018-07-19T06:07:51.309Z,101600.01
2018-07-19T06:10:20.705Z,101598.63
2018-07-19T06:12:50.036Z,101603.62
2018-07-19T06:15:19.411Z,101608.86
2018-07-19T06:17:48.788Z,101596.61
2018-07-19T06:20:18.189Z,101604.88
2018-07-19T06:22:47.728Z,101603.08
2018-07-19T06:25:17.322Z,101600.75
2018-07-19T06:27:46.727Z,101601.36
2018-07-19T06:30:16.234Z,101600.47
2018-07-19T06:32:45.778Z,101597.21
2018-07-19T06:35:15.512Z,101605.95
2018-07-19T06:37:45.393Z,101603.71
2018-07-19T06:40:15.888Z,101608.11
2018-07-19T06:42:45.479Z,101603.48
2018-07-19T06:45:15.001Z,101609.18
2018-07-19T06:47:44.834Z,101598.98
2018-07-19T06:50:14.619Z,101602.61
2018-07-19T06:52:44.230Z,101608.54
2018-07-19T06:55:14.470Z,101606.14
2018-07-19T06:57:44.607Z,101611.28
2018-07-19T07:00:14.494Z,101608.58
2018-07-19T07:02:45.628Z,101604.84
2018-07-19T07:05:16.861Z,101609.66
2018-07-19T07:07:47.272Z,101606.05
2018-07-19T07:10:17.868Z,101607.89
2018-07-19T07:12:47.800Z,101613.59
2018-07-19T07:15:17.582Z,101613.08
2018-07-19T07:17:46.864Z,101616.14
2018-07-19T07:20:16.147Z,101610.55
2018-07-19T07:22:45.780Z,101614.81
2018-07-19T07:25:15.285Z,101613.23
2018-07-19T07:27:45.260Z,101616.52
2018-07-19T07:30:15.048Z,101616.67
2018-07-19T07:32:45.753Z,101610.52
2018-07-19T07:35:16.505Z,101616.35
2018-07-19T07:37:46.943Z,101617.31
2018-07-19T07:40:16.465Z,101621.62
2018-07-19T07:42:48.053Z,101611.97
2018-07-19T07:45:17.627Z,101615.19
2018-07-19T07:47:47.283Z,101602.31
2018-07-19T07:50:17.038Z,101608.44
2018-07-19T07:52:46.719Z,101607.85
2018-07-19T07:55:19.802Z,101617.25
2018-07-19T07:57:50.203Z,101609.06
2018-07-19T08:00:19.761Z,101599.21
2018-07-19T08:02:49.117Z,101605.02
2018-07-19T08:05:18.536Z,101602.70
2018-07-19T08:07:48.045Z,101598.34
2018-07-19T08:10:17.464Z,101603.88
2018-07-19T08:12:46.821Z,101606.46
2018-07-19T08:15:16.756Z,101605.67
2018-07-19T08:17:46.137Z,101604.31
2018-07-19T08:20:15.745Z,101600.21
2018-07-19T08:22:45.233Z,101603.52
2018-07-19T08:25:14.960Z,101602.38
2018-07-19T08:27:44.598Z,101602.74
2018-07-19T08:30:14.429Z,101595.87
2018-07-19T08:32:44.078Z,101593.69
2018-07-19T08:35:13.708Z,101591.12
2018-07-19T08:37:44.110Z,101594.05
2018-07-19T08:40:14.384Z,101598.75
2018-07-19T08:42:44.904Z,101593.91
2018-07-19T08:45:14.818Z,101590.34
2018-07-19T08:47:44.791Z,101587.52
2018-07-19T08:50:14.807Z,101591.88
2018-07-19T08:52:45.234Z,101586.80
2018-07-19T08:55:15.141Z,101581.48
2018-07-19T08:57:44.883Z,101575.19
2018-07-19T09:00:16.647Z,101584.08
2018-07-19T09:02:46.537Z,101585.48
2018-07-19T09:05:16.297Z,101593.64
2018-07-19T09:07:45.922Z,101591.09
2018-07-19T09:12:44.164Z,101587.70
2018-07-19T09:15:14.461Z,101582.80
2018-07-19T09:17:44.091Z,101586.66
2018-07-19T09:20:13.889Z,101569.91
2018-07-19T09:22:45.015Z,101579.23
2018-07-19T09:25:14.663Z,101571.75
2018-07-19T09:27:44.365Z,101573.31
2018-07-19T09:30:14.529Z,101563.62
2018-07-19T09:32:44.437Z,101569.41
2018-07-19T09:35:14.061Z,101570.58
2018-07-19T09:37:44.772Z,101573.13
2018-07-19T09:40:14.669Z,101565.31
2018-07-19T09:42:44.279Z,101563.30
2018-07-19T09:45:14.093Z,101567.05
2018-07-19T09:47:43.927Z,101574.17
2018-07-19T09:50:13.903Z,101565.52
2018-07-19T09:52:44.056Z,101573.00
2018-07-19T09:55:14.281Z,101568.66
2018-07-19T09:57:44.504Z,101562.91
2018-07-19T10:00:19.968Z,101561.20
2018-07-19T10:02:49.192Z,101564.17
2018-07-19T10:05:18.708Z,101560.44
2018-07-19T10:07:48.290Z,101563.61
2018-07-19T10:10:17.753Z,101562.25
2018-07-19T10:12:47.249Z,101552.33
2018-07-19T10:15:17.122Z,101560.52
2018-07-19T10:17:46.709Z,101563.85
2018-07-19T10:20:16.338Z,101563.55
2018-07-19T10:22:45.886Z,101568.05
2018-07-19T10:25:15.724Z,101569.09
2018-07-19T10:27:45.323Z,101568.73
2018-07-19T10:30:15.335Z,101562.63
2018-07-19T10:32:45.034Z,101550.38
2018-07-19T10:35:16.136Z,101554.45
2018-07-19T10:37:46.209Z,101542.47
2018-07-19T10:40:20.514Z,101542.41
2018-07-19T10:42:49.914Z,101545.48
2018-07-19T10:45:19.375Z,101538.90
2018-07-19T10:47:49.362Z,101539.44
2018-07-19T10:50:20.228Z,101531.77
2018-07-19T10:52:49.668Z,101534.60
2018-07-19T10:55:19.183Z,101534.55
2018-07-19T10:57:49.625Z,101541.21
2018-07-19T11:00:19.042Z,101525.53
2018-07-19T11:02:48.725Z,101531.48
2018-07-19T11:05:18.609Z,101526.16
2018-07-19T11:07:48.044Z,101526.28
2018-07-19T11:10:18.420Z,101523.94
2018-07-19T11:12:48.170Z,101532.77
2018-07-19T11:15:17.867Z,101531.66
2018-07-19T11:17:47.862Z,101532.84
2018-07-19T11:20:17.826Z,101528.17
2018-07-19T11:22:47.943Z,101527.95
2018-07-19T11:25:17.917Z,101530.33
2018-07-19T11:27:48.055Z,101517.78
2018-07-19T11:30:17.920Z,101517.32
2018-07-19T11:32:48.334Z,101513.38
2018-07-19T11:35:18.824Z,101523.61
2018-07-19T11:37:49.297Z,101528.53
2018-07-19T11:40:18.852Z,101526.39
2018-07-19T11:42:48.229Z,101534.92
2018-07-19T11:45:18.331Z,101526.55
2018-07-19T11:47:47.873Z,101513.78
2018-07-19T11:50:17.505Z,101514.55
2018-07-19T11:52:46.940Z,101517.83
2018-07-19T11:55:16.420Z,101516.02
2018-07-19T11:57:46.265Z,101513.42
2018-07-19T12:00:16.229Z,101500.78
2018-07-19T12:02:45.989Z,101503.81
2018-07-19T12:05:15.542Z,101500.55
2018-07-19T12:07:45.001Z,101501.80
2018-07-19T12:10:15.100Z,101492.88
2018-07-19T12:12:44.984Z,101507.44
2018-07-19T12:15:14.780Z,101504.61
2018-07-19T12:17:45.824Z,101502.96
2018-07-19T12:20:15.991Z,101501.37
2018-07-19T12:22:46.343Z,101497.28
2018-07-19T12:25:16.559Z,101499.14
2018-07-19T12:27:46.483Z,101497.08
2018-07-19T12:30:16.339Z,101498.80
2018-07-19T12:32:46.408Z,101496.66
2018-07-19T12:35:16.293Z,101492.08
2018-07-19T12:37:46.325Z,101503.84
2018-07-19T12:40:17.511Z,101498.45
2018-07-19T12:42:47.213Z,101491.28
2018-07-19T12:45:16.576Z,101491.53
2018-07-19T12:47:46.517Z,101490.89
2018-07-19T12:50:17.060Z,101483.83
2018-07-19T12:52:47.199Z,101482.31
2018-07-19T12:55:16.734Z,101478.72
2018-07-19T12:57:46.083Z,101484.81
2018-07-19T13:00:15.761Z,101492.67
2018-07-19T13:02:45.331Z,101489.78
2018-07-19T13:05:15.743Z,101482.39
2018-07-19T13:07:45.621Z,101481.63
2018-07-19T13:10:16.707Z,101484.93
2018-07-19T13:12:47.992Z,101496.86
2018-07-19T13:15:17.471Z,101492.83
2018-07-19T13:17:46.993Z,101486.86
2018-07-19T13:20:17.203Z,101477.00
2018-07-19T13:22:48.539Z,101485.45
2018-07-19T13:25:19.690Z,101480.63
2018-07-19T13:27:49.213Z,101473.80
2018-07-19T13:30:19.175Z,101482.92
2018-07-19T13:32:49.085Z,101487.26
2018-07-19T13:35:18.631Z,101485.22
2018-07-19T13:37:48.170Z,101478.84
2018-07-19T13:40:19.182Z,101488.29
2018-07-19T13:42:49.016Z,101474.62
2018-07-19T13:45:18.796Z,101480.39
2018-07-19T13:47:49.145Z,101468.45
2018-07-19T13:50:19.230Z,101469.81
2018-07-19T13:52:59.675Z,101467.37
2018-07-19T13:55:29.641Z,101472.42
2018-07-19T13:58:03.658Z,101464.24
2018-07-19T14:00:33.771Z,101476.42
2018-07-19T14:03:04.524Z,101464.35
2018-07-19T14:05:37.020Z,101459.44
2018-07-19T14:08:11.746Z,101462.73
2018-07-19T14:10:46.355Z,101454.91
2018-07-19T14:13:17.363Z,101456.53
2018-07-19T14:15:48.341Z,101458.73
2018-07-19T14:18:18.151Z,101451.28
2018-07-19T14:20:48.456Z,101459.47
2018-07-19T14:23:19.810Z,101462.19
2018-07-19T14:25:49.212Z,101460.02
2018-07-19T14:28:19.063Z,101464.55
2018-07-19T14:30:55.063Z,101461.28
2018-07-19T14:33:25.864Z,101463.42
2018-07-19T14:35:55.302Z,101461.91
2018-07-19T14:38:29.381Z,101468.09
2018-07-19T14:40:58.845Z,101465.13
2018-07-19T14:43:29.060Z,101465.91
2018-07-19T14:46:00.265Z,101454.46
2018-07-19T14:48:29.963Z,101452.88
2018-07-19T14:51:00.755Z,101448.48
2018-07-19T14:53:30.955Z,101449.39
2018-07-19T14:56:00.650Z,101448.73
2018-07-19T14:58:30.315Z,101451.22
2018-07-19T15:01:00.151Z,101451.31
2018-07-19T15:03:29.817Z,101438.47
2018-07-19T15:05:59.397Z,101433.81
2018-07-19T15:08:29.241Z,101433.95
2018-07-19T15:11:03.565Z,101436.84
2018-07-19T15:13:34.287Z,101429.16
2018-07-19T15:16:06.256Z,101428.98
2018-07-19T15:18:37.126Z,101428.64
2018-07-19T15:21:07.730Z,101426.69
2018-07-19T15:23:38.945Z,101428.95
2018-07-19T15:26:09.504Z,101423.78
2018-07-19T15:28:39.774Z,101426.96
2018-07-19T15:31:12.272Z,101423.47
2018-07-19T15:33:47.647Z,101415.88
2018-07-19T15:36:17.630Z,101416.34
2018-07-19T15:38:47.440Z,101417.77
2018-07-19T15:41:17.966Z,101419.26
2018-07-19T15:43:48.674Z,101415.96
2018-07-19T15:46:18.148Z,101414.77
2018-07-19T15:48:48.149Z,101408.62
2018-07-19T15:51:26.192Z,101406.80
2018-07-19T15:53:59.041Z,101409.41
2018-07-19T15:56:42.681Z,101408.34
2018-07-19T15:59:16.844Z,101405.59
2018-07-19T16:01:48.562Z,101408.09
2018-07-19T16:04:18.920Z,101408.12
2018-07-19T16:06:48.640Z,101403.58
2018-07-19T16:09:23.017Z,101402.81
2018-07-19T16:11:52.534Z,101405.70
2018-07-19T16:14:21.855Z,101397.20
2018-07-19T16:16:52.320Z,101403.86
2018-07-19T16:19:23.019Z,101401.91
2018-07-19T16:21:53.405Z,101399.19
2018-07-19T16:24:22.695Z,101412.39
2018-07-19T16:26:52.143Z,101403.50
2018-07-19T16:29:22.790Z,101399.84
2018-07-19T16:31:52.266Z,101407.05
2018-07-19T16:34:21.539Z,101391.16
2018-07-19T16:36:50.944Z,101385.68
2018-07-19T16:39:20.343Z,101393.72
2018-07-19T16:41:49.646Z,101400.80
2018-07-19T16:44:19.225Z,101395.99
2018-07-19T16:46:48.586Z,101395.20
2018-07-19T16:49:17.928Z,101404.20
2018-07-19T16:51:47.572Z,101408.02
2018-07-19T16:54:19.068Z,101404.81
2018-07-19T16:56:48.953Z,101399.87
2018-07-19T16:59:18.932Z,101402.87
2018-07-19T17:01:48.871Z,101399.91
2018-07-19T17:04:18.625Z,101392.58
2018-07-19T17:06:48.375Z,101393.37
2018-07-19T17:09:18.565Z,101392.22
2018-07-19T17:11:48.500Z,101390.02
2018-07-19T17:14:18.868Z,101392.98
2018-07-19T17:16:49.433Z,101390.30
2018-07-19T17:19:19.833Z,101395.41
2018-07-19T17:21:49.958Z,101383.78
2018-07-19T17:24:20.163Z,101388.92
2018-07-19T17:26:50.151Z,101399.09
2018-07-19T17:29:20.265Z,101394.19
2018-07-19T17:31:49.730Z,101393.66
2018-07-19T17:34:19.812Z,101383.50
2018-07-19T17:36:50.900Z,101396.31
2018-07-19T17:39:20.899Z,101404.77
2018-07-19T17:41:50.614Z,101398.28
2018-07-19T17:44:20.297Z,101405.95
2018-07-19T17:46:50.478Z,101399.45
2018-07-19T17:49:20.195Z,101403.05
2018-07-19T17:51:49.810Z,101406.95
2018-07-19T17:54:19.364Z,101405.27
2018-07-19T17:56:49.989Z,101408.53
2018-07-19T17:59:19.506Z,101399.59
2018-07-19T18:01:57.369Z,101409.13
2018-07-19T18:04:27.372Z,101405.66
2018-07-19T18:06:56.858Z,101403.07
2018-07-19T18:09:27.682Z,101403.27
2018-07-19T18:12:00.058Z,101403.92
2018-07-19T18:14:31.712Z,101400.34
2018-07-19T18:17:02.680Z,101405.17
2018-07-19T18:19:33.469Z,101403.59
2018-07-19T18:22:07.975Z,101409.13
2018-07-19T18:24:41.363Z,101411.41
2018-07-19T18:27:11.682Z,101425.67
2018-07-19T18:29:41.546Z,101419.02
2018-07-19T18:32:12.273Z,101418.72
2018-07-19T18:34:43.182Z,101426.52
2018-07-19T18:37:13.730Z,101426.77
2018-07-19T18:39:45.882Z,101427.38
2018-07-19T18:42:15.982Z,101429.46
2018-07-19T18:44:45.547Z,101428.05
2018-07-19T18:47:17.023Z,101429.08
2018-07-19T18:49:48.661Z,101426.34
2018-07-19T18:52:18.748Z,101429.97
2018-07-19T18:54:48.327Z,101435.26
2018-07-19T18:57:20.997Z,101437.16
2018-07-19T18:59:50.513Z,101437.16
2018-07-19T19:02:20.079Z,101438.38
2018-07-19T19:04:49.754Z,101444.37
2018-07-19T19:07:19.694Z,101437.55
2018-07-19T19:09:49.332Z,101439.66
2018-07-19T19:12:18.969Z,101444.61
2018-07-19T19:14:48.727Z,101446.41
2018-07-19T19:17:18.805Z,101449.06
2018-07-19T19:19:49.093Z,101444.92
2018-07-19T19:22:20.255Z,101445.73
2018-07-19T19:24:50.250Z,101441.06
2018-07-19T19:27:20.263Z,101443.05
2018-07-19T19:29:53.671Z,101438.12
2018-07-19T19:32:26.565Z,101441.98
2018-07-19T19:34:56.183Z,101443.20
2018-07-19T19:37:25.540Z,101445.37
2018-07-19T19:39:54.878Z,101444.24
2018-07-19T19:42:24.213Z,101442.18
2018-07-19T19:44:54.191Z,101446.30
2018-07-19T19:47:26.141Z,101449.85
2018-07-19T19:49:55.721Z,101450.84
2018-07-19T19:52:25.137Z,101458.31
2018-07-19T19:54:54.661Z,101466.00
2018-07-19T19:57:24.602Z,101453.95
2018-07-19T19:59:54.273Z,101458.12
2018-07-19T20:02:26.326Z,101458.88
2018-07-19T20:04:55.908Z,101459.45
2018-07-19T20:07:27.543Z,101456.07
2018-07-19T20:09:56.913Z,101452.06
2018-07-19T20:12:26.298Z,101454.05
2018-07-19T20:14:59.121Z,101459.31
2018-07-19T20:17:28.791Z,101459.36
2018-07-19T20:19:58.352Z,101451.54
2018-07-19T20:22:31.776Z,101449.30
2018-07-19T20:25:01.618Z,101450.31
2018-07-19T20:27:31.211Z,101451.78
2018-07-19T20:30:01.226Z,101447.45
2018-07-19T20:32:30.809Z,101447.16
2018-07-19T20:35:00.398Z,101450.66
2018-07-19T20:37:30.051Z,101441.75
2018-07-19T20:39:59.924Z,101447.47
2018-07-19T20:42:33.650Z,101444.45
2018-07-19T20:45:04.766Z,101446.16
2018-07-19T20:47:35.745Z,101447.52
2018-07-19T20:50:05.970Z,101457.36
2018-07-19T20:52:37.519Z,101452.03
2018-07-19T20:55:11.073Z,101452.16
2018-07-19T20:57:40.818Z,101453.75
2018-07-19T21:00:11.009Z,101448.28
2018-07-19T21:02:41.879Z,101449.09
2018-07-19T21:05:13.211Z,101449.86
2018-07-19T21:07:43.292Z,101449.95
2018-07-19T21:10:13.803Z,101449.50
2018-07-19T21:12:43.891Z,101450.98
2018-07-19T21:15:19.636Z,101454.27
2018-07-19T21:17:51.925Z,101451.51
2018-07-19T21:20:21.627Z,101450.34
2018-07-19T21:22:52.901Z,101453.00
2018-07-19T21:25:27.011Z,101449.20
2018-07-19T21:27:56.569Z,101451.59
2018-07-19T21:30:26.138Z,101445.97
2018-07-19T21:32:56.119Z,101451.81
2018-07-19T21:35:25.587Z,101450.00
2018-07-19T21:37:55.276Z,101450.43
2018-07-19T21:40:24.871Z,101452.16
2018-07-19T21:42:54.508Z,101455.22
2018-07-19T21:45:24.146Z,101455.97
2018-07-19T21:47:54.001Z,101459.05
2018-07-19T21:50:23.667Z,101461.34
2018-07-19T21:52:53.216Z,101459.92
2018-07-19T21:55:22.842Z,101458.95
2018-07-19T21:57:52.143Z,101461.21
2018-07-19T22:00:21.701Z,101458.40
2018-07-19T22:02:51.414Z,101462.36
2018-07-19T22:05:20.896Z,101459.19
2018-07-19T22:07:50.216Z,101453.64
2018-07-19T22:10:19.606Z,101457.11
2018-07-19T22:12:49.373Z,101455.08
2018-07-19T22:15:20.046Z,101449.81
2018-07-19T22:17:49.537Z,101455.89
2018-07-19T22:20:18.967Z,101446.53
2018-07-19T22:22:48.181Z,101453.00
2018-07-19T22:25:18.227Z,101453.14
2018-07-19T22:27:48.039Z,101453.47
2018-07-19T22:30:18.062Z,101455.91
2018-07-19T22:32:47.900Z,101460.85
2018-07-19T22:35:17.203Z,101451.00
2018-07-19T22:37:46.640Z,101459.36
2018-07-19T22:40:16.362Z,101454.02
2018-07-19T22:42:46.629Z,101453.53
2018-07-19T22:45:16.225Z,101448.64
2018-07-19T22:47:47.213Z,101444.96
2018-07-19T22:50:17.286Z,101444.95
2018-07-19T22:52:47.714Z,101447.79
2018-07-19T22:55:17.813Z,101446.70
2018-07-19T22:57:47.476Z,101445.76
2018-07-19T23:00:17.302Z,101445.09
2018-07-19T23:02:47.254Z,101449.36
2018-07-19T23:05:17.072Z,101446.80
2018-07-19T23:07:47.442Z,101454.49
2018-07-19T23:10:17.292Z,101449.86
2018-07-19T23:12:47.621Z,101453.71
2018-07-19T23:15:17.680Z,101454.47
2018-07-19T23:17:47.243Z,101445.92
2018-07-19T23:20:16.816Z,101443.97
2018-07-19T23:22:51.900Z,101444.59
2018-07-19T23:25:21.565Z,101447.78
2018-07-19T23:27:51.116Z,101438.86
2018-07-19T23:30:20.940Z,101441.31
2018-07-19T23:32:50.559Z,101436.78
2018-07-19T23:35:20.885Z,101435.58
2018-07-19T23:37:52.142Z,101434.83
2018-07-19T23:40:24.905Z,101425.88
2018-07-19T23:43:00.037Z,101429.77
2018-07-19T23:45:34.786Z,101426.98
2018-07-19T23:48:05.855Z,101425.14
2018-07-19T23:50:35.727Z,101426.02
2018-07-19T23:53:05.494Z,101429.44
2018-07-19T23:55:35.830Z,101424.05
2018-07-19T23:58:06.162Z,101420.00
